createdAt,value
2018-02-08T00:00:11.330Z,21.27
2018-02-08T00:02:39.038Z,21.20
2018-02-08T00:05:06.541Z,20.33
2018-02-08T00:07:34.186Z,21.45
2018-02-08T00:10:02.543Z,20.60
2018-02-08T00:12:30.070Z,21.85
2018-02-08T00:14:57.662Z,21.95
2018-02-08T00:17:25.360Z,18.98
2018-02-08T00:19:54.516Z,21.58
2018-02-08T00:22:34.118Z,20.40
2018-02-08T00:25:01.827Z,18.48
2018-02-08T00:27:29.845Z,20.37
2018-02-08T00:29:58.552Z,20.25
2018-02-08T00:32:26.971Z,20.83
2018-02-08T00:34:54.485Z,19.00
2018-02-08T00:37:22.765Z,21.37
2018-02-08T00:39:51.274Z,19.40
2018-02-08T00:42:19.073Z,21.98
2018-02-08T00:44:46.722Z,20.30
2018-02-08T00:47:14.589Z,20.98
2018-02-08T00:49:43.151Z,21.20
2018-02-08T00:52:11.046Z,21.02
2018-02-08T00:54:38.538Z,23.08
2018-02-08T00:57:06.189Z,21.70
2018-02-08T00:59:33.682Z,24.25
2018-02-08T01:02:01.190Z,24.40
2018-02-08T01:07:02.862Z,22.87
2018-02-08T01:09:30.680Z,21.65
2018-02-08T01:11:59.049Z,23.50
2018-02-08T01:14:27.497Z,21.10
2018-02-08T01:16:54.989Z,20.60
2018-02-08T01:19:23.388Z,22.10
2018-02-08T01:21:50.961Z,20.65
2018-02-08T01:24:18.475Z,21.98
2018-02-08T01:26:46.786Z,23.65
2018-02-08T01:29:14.459Z,20.95
2018-02-08T01:31:42.109Z,18.80
2018-02-08T01:34:09.756Z,20.55
2018-02-08T01:36:37.352Z,19.33
2018-02-08T01:39:04.886Z,21.20
2018-02-08T01:41:32.459Z,23.40
2018-02-08T01:44:00.125Z,21.35
2018-02-08T01:46:27.641Z,21.40
2018-02-08T01:48:55.347Z,20.62
2018-02-08T01:51:23.320Z,20.15
2018-02-08T01:53:51.001Z,19.85
2018-02-08T01:56:18.544Z,22.25
2018-02-08T01:58:46.199Z,22.70
2018-02-08T02:01:13.856Z,21.65
2018-02-08T02:03:42.512Z,22.75
2018-02-08T02:06:10.790Z,20.33
2018-02-08T02:08:39.113Z,23.35
2018-02-08T02:11:06.793Z,19.77
2018-02-08T02:13:34.392Z,20.05
2018-02-08T02:16:02.709Z,20.48
2018-02-08T02:18:30.339Z,20.17
2018-02-08T02:20:58.061Z,22.30
2018-02-08T02:23:25.712Z,22.67
2018-02-08T02:25:54.957Z,20.88
2018-02-08T02:28:22.785Z,22.80
2018-02-08T02:30:50.431Z,20.15
2018-02-08T02:33:18.214Z,20.33
2018-02-08T02:35:45.849Z,20.02
2018-02-08T02:38:13.364Z,21.52
2018-02-08T02:40:41.195Z,20.62
2018-02-08T02:43:09.631Z,22.60
2018-02-08T02:45:37.178Z,20.83
2018-02-08T02:48:05.461Z,19.85
2018-02-08T02:50:33.254Z,22.35
2018-02-08T02:53:00.882Z,22.75
2018-02-08T02:55:28.568Z,24.65
2018-02-08T02:57:56.922Z,22.05
2018-02-08T03:00:24.740Z,22.95
2018-02-08T03:02:52.538Z,22.87
2018-02-08T03:05:20.165Z,23.45
2018-02-08T03:07:47.653Z,24.17
2018-02-08T03:10:15.395Z,23.70
2018-02-08T03:12:43.047Z,22.73
2018-02-08T03:15:10.847Z,23.20
2018-02-08T03:17:39.526Z,22.48
2018-02-08T03:20:08.275Z,21.45
2018-02-08T03:22:35.944Z,23.38
2018-02-08T03:25:03.511Z,22.30
2018-02-08T03:27:31.077Z,20.58
2018-02-08T03:29:58.742Z,23.15
2018-02-08T03:32:27.545Z,22.02
2018-02-08T03:34:55.410Z,22.35
2018-02-08T03:37:22.990Z,22.02
2018-02-08T03:39:50.700Z,24.70
2018-02-08T03:42:19.179Z,22.27
2018-02-08T03:44:52.857Z,22.08
2018-02-08T03:47:21.117Z,24.33
2018-02-08T03:49:48.599Z,23.83
2018-02-08T03:52:16.175Z,23.08
2018-02-08T03:54:43.791Z,22.05
2018-02-08T03:57:11.619Z,20.15
2018-02-08T03:59:39.133Z,20.62
2018-02-08T04:02:07.398Z,23.12
2018-02-08T04:04:34.878Z,22.83
2018-02-08T04:07:02.419Z,23.95
2018-02-08T04:09:30.693Z,22.20
2018-02-08T04:11:58.970Z,21.80
2018-02-08T04:14:26.783Z,22.35
2018-02-08T04:16:54.310Z,23.55
2018-02-08T04:19:22.619Z,21.58
2018-02-08T04:21:50.138Z,21.67
2018-02-08T04:24:18.390Z,22.65
2018-02-08T04:26:45.876Z,22.83
2018-02-08T04:29:18.226Z,23.45
2018-02-08T04:31:46.506Z,21.98
2018-02-08T04:34:14.153Z,20.90
2018-02-08T04:36:41.682Z,22.10
2018-02-08T04:39:21.861Z,21.23
2018-02-08T04:42:01.342Z,22.92
2018-02-08T04:44:41.341Z,22.45
2018-02-08T04:47:23.771Z,20.80
2018-02-08T04:49:52.066Z,23.33
2018-02-08T04:52:19.567Z,21.87
2018-02-08T04:54:47.069Z,21.52
2018-02-08T04:57:14.549Z,21.35
2018-02-08T04:59:42.938Z,21.62
2018-02-08T05:02:25.325Z,22.20
2018-02-08T05:04:52.837Z,21.45
2018-02-08T05:07:20.409Z,21.40
2018-02-08T05:09:48.706Z,23.05
2018-02-08T05:12:16.253Z,23.12
2018-02-08T05:14:43.753Z,23.45
2018-02-08T05:17:11.998Z,24.42
2018-02-08T05:19:40.245Z,24.08
2018-02-08T05:22:07.741Z,22.87
2018-02-08T05:24:35.221Z,22.87
2018-02-08T05:27:02.839Z,22.77
2018-02-08T05:29:30.329Z,23.15
2018-02-08T05:31:58.776Z,22.17
2018-02-08T05:34:27.086Z,25.42
2018-02-08T05:36:54.642Z,23.55
2018-02-08T05:39:22.130Z,23.60
2018-02-08T05:41:49.704Z,24.60
2018-02-08T05:44:17.201Z,23.98
2018-02-08T05:46:44.694Z,24.40
2018-02-08T05:49:13.082Z,25.95
2018-02-08T05:51:40.588Z,24.90
2018-02-08T05:54:08.081Z,25.35
2018-02-08T05:56:36.392Z,25.60
2018-02-08T05:59:03.885Z,26.92
2018-02-08T06:01:31.381Z,27.70
2018-02-08T06:03:59.666Z,28.08
2018-02-08T06:06:27.910Z,27.30
2018-02-08T06:08:55.402Z,27.83
2018-02-08T06:11:23.667Z,26.50
2018-02-08T06:13:51.947Z,27.27
2018-02-08T06:16:20.221Z,27.15
2018-02-08T06:18:48.500Z,27.37
2018-02-08T06:21:16.765Z,27.30
2018-02-08T06:23:44.249Z,30.00
2018-02-08T06:26:11.834Z,26.90
2018-02-08T06:28:39.329Z,28.70
2018-02-08T06:31:06.821Z,28.25
2018-02-08T06:33:34.437Z,28.45
2018-02-08T06:36:01.922Z,27.30
2018-02-08T06:38:29.423Z,26.73
2018-02-08T06:40:56.938Z,28.15
2018-02-08T06:43:24.418Z,25.17
2018-02-08T06:45:52.002Z,26.37
2018-02-08T06:48:19.522Z,29.30
2018-02-08T06:50:47.797Z,27.90
2018-02-08T06:53:16.073Z,26.00
2018-02-08T06:55:44.373Z,27.08
2018-02-08T06:58:11.924Z,30.98
2018-02-08T07:00:39.382Z,28.30
2018-02-08T07:03:07.683Z,30.42
2018-02-08T07:05:35.170Z,31.35
2018-02-08T07:08:02.705Z,29.63
2018-02-08T07:10:30.198Z,30.05
2018-02-08T07:12:57.722Z,30.25
2018-02-08T07:15:25.214Z,31.70
2018-02-08T07:17:53.636Z,31.37
2018-02-08T07:20:21.962Z,31.30
2018-02-08T07:22:49.653Z,30.55
2018-02-08T07:25:17.130Z,30.83
2018-02-08T07:27:45.405Z,30.33
2018-02-08T07:30:13.690Z,28.15
2018-02-08T07:32:41.201Z,31.80
2018-02-08T07:35:08.832Z,31.12
2018-02-08T07:37:36.414Z,30.37
2018-02-08T07:40:03.990Z,30.67
2018-02-08T07:42:32.269Z,30.48
2018-02-08T07:45:00.005Z,31.15
2018-02-08T07:47:27.528Z,31.37
2018-02-08T07:49:55.232Z,30.98
2018-02-08T07:52:23.307Z,30.62
2018-02-08T07:54:50.810Z,31.37
2018-02-08T07:57:19.125Z,28.48
2018-02-08T07:59:46.646Z,29.42
2018-02-08T08:02:14.937Z,32.10
2018-02-08T08:04:42.419Z,31.75
2018-02-08T08:07:10.034Z,31.23
2018-02-08T08:09:38.314Z,30.70
2018-02-08T08:12:05.793Z,29.33
2018-02-08T08:14:34.097Z,31.50
2018-02-08T08:17:01.581Z,28.08
2018-02-08T08:19:29.241Z,30.40
2018-02-08T08:21:56.874Z,27.67
2018-02-08T08:24:24.385Z,29.12
2018-02-08T08:26:52.669Z,31.30
2018-02-08T08:29:20.165Z,30.40
2018-02-08T08:31:47.649Z,29.85
2018-02-08T08:34:15.226Z,30.77
2018-02-08T08:36:42.726Z,30.10
2018-02-08T08:39:10.313Z,28.00
2018-02-08T08:41:37.865Z,32.10
2018-02-08T08:44:05.342Z,30.15
2018-02-08T08:46:32.822Z,30.35
2018-02-08T08:49:00.594Z,32.80
2018-02-08T08:51:28.866Z,31.40
2018-02-08T08:53:56.376Z,30.37
2018-02-08T08:56:24.004Z,32.67
2018-02-08T08:58:52.395Z,32.83
2018-02-08T09:01:20.293Z,31.55
2018-02-08T09:03:47.927Z,29.73
2018-02-08T09:06:15.470Z,32.45
2018-02-08T09:08:42.950Z,31.87
2018-02-08T09:11:10.568Z,31.10
2018-02-08T09:13:38.091Z,32.05
2018-02-08T09:16:05.582Z,32.55
2018-02-08T09:18:33.160Z,31.58
2018-02-08T09:21:01.795Z,32.25
2018-02-08T09:23:30.129Z,30.08
2018-02-08T09:25:58.390Z,33.03
2018-02-08T09:28:25.941Z,31.77
2018-02-08T09:30:53.440Z,31.95
2018-02-08T09:33:21.130Z,31.58
2018-02-08T09:35:49.446Z,30.15
2018-02-08T09:38:16.937Z,32.95
2018-02-08T09:40:44.431Z,32.38
2018-02-08T09:43:11.937Z,31.92
2018-02-08T09:45:40.238Z,31.77
2018-02-08T09:48:07.781Z,30.55
2018-02-08T09:50:36.684Z,31.00
2018-02-08T09:53:04.164Z,31.62
2018-02-08T09:55:31.653Z,33.05
2018-02-08T09:57:59.149Z,33.88
2018-02-08T10:00:27.510Z,29.35
2018-02-08T10:02:55.794Z,31.62
2018-02-08T10:05:23.508Z,29.98
2018-02-08T10:07:51.026Z,31.12
2018-02-08T10:10:19.293Z,31.40
2018-02-08T10:12:46.798Z,32.00
2018-02-08T10:15:14.406Z,29.55
2018-02-08T10:17:41.978Z,31.10
2018-02-08T10:20:10.279Z,31.73
2018-02-08T10:22:37.948Z,30.08
2018-02-08T10:25:05.454Z,32.75
2018-02-08T10:27:32.974Z,31.15
2018-02-08T10:30:00.476Z,33.22
2018-02-08T10:32:27.994Z,32.13
2018-02-08T10:34:55.510Z,32.50
2018-02-08T10:37:23.978Z,30.25
2018-02-08T10:39:51.462Z,31.17
2018-02-08T10:42:19.895Z,32.38
2018-02-08T10:44:47.390Z,31.12
2018-02-08T10:47:15.645Z,29.60
2018-02-08T10:49:43.662Z,31.85
2018-02-08T10:52:11.146Z,32.53
2018-02-08T10:54:38.641Z,31.87
2018-02-08T10:57:06.326Z,29.50
2018-02-08T10:59:34.637Z,30.35
2018-02-08T11:02:02.150Z,29.20
2018-02-08T11:04:30.477Z,30.80
2018-02-08T11:06:58.923Z,30.83
2018-02-08T11:09:26.653Z,29.48
2018-02-08T11:11:54.142Z,30.65
2018-02-08T11:14:22.409Z,31.27
2018-02-08T11:16:50.686Z,26.23
2018-02-08T11:19:18.962Z,28.80
2018-02-08T11:21:47.250Z,29.90
2018-02-08T11:24:15.504Z,28.15
2018-02-08T11:26:42.998Z,29.37
2018-02-08T11:29:10.514Z,27.05
2018-02-08T11:31:38.005Z,25.70
2018-02-08T11:34:06.270Z,28.12
2018-02-08T11:36:34.549Z,28.52
2018-02-08T11:39:02.832Z,29.15
2018-02-08T11:41:31.097Z,27.95
2018-02-08T11:43:59.421Z,29.30
2018-02-08T11:46:26.934Z,28.00
2018-02-08T11:48:55.202Z,30.90
2018-02-08T11:51:22.686Z,28.30
2018-02-08T11:53:50.225Z,29.23
2018-02-08T11:56:18.472Z,28.85
2018-02-08T11:58:45.966Z,28.55
2018-02-08T12:01:14.441Z,28.98
2018-02-08T12:03:42.018Z,27.67
2018-02-08T12:06:09.506Z,25.15
2018-02-08T12:08:37.028Z,26.98
2018-02-08T12:11:05.298Z,25.73
2018-02-08T12:13:33.638Z,27.13
2018-02-08T12:16:01.250Z,25.85
2018-02-08T12:18:29.523Z,27.13
2018-02-08T12:20:57.081Z,27.00
2018-02-08T12:23:25.335Z,24.58
2018-02-08T12:25:52.847Z,24.70
2018-02-08T12:28:20.335Z,25.62
2018-02-08T12:30:48.011Z,25.23
2018-02-08T12:33:16.362Z,22.58
2018-02-08T12:35:43.882Z,25.95
2018-02-08T12:38:11.382Z,25.83
2018-02-08T12:40:38.905Z,24.37
2018-02-08T12:43:07.458Z,24.05
2018-02-08T12:45:35.832Z,22.25
2018-02-08T12:48:03.386Z,24.60
2018-02-08T12:50:30.914Z,23.83
2018-02-08T12:52:58.414Z,22.15
2018-02-08T12:55:26.128Z,24.48
2018-02-08T12:57:53.788Z,21.87
2018-02-08T13:00:21.297Z,24.27
2018-02-08T13:02:48.807Z,19.70
2018-02-08T13:05:16.306Z,20.90
2018-02-08T13:07:43.827Z,19.20
2018-02-08T13:10:11.333Z,20.88
2018-02-08T13:12:39.783Z,21.13
2018-02-08T13:15:07.285Z,22.08
2018-02-08T13:17:36.094Z,20.92
2018-02-08T13:20:03.757Z,21.90
2018-02-08T13:22:31.242Z,22.73
2018-02-08T13:24:58.861Z,21.33
2018-02-08T13:27:26.362Z,17.27
2018-02-08T13:29:54.136Z,20.80
2018-02-08T13:32:21.655Z,20.85
2018-02-08T13:34:49.242Z,23.90
2018-02-08T13:37:16.755Z,20.85
2018-02-08T13:39:51.661Z,17.75
2018-02-08T13:42:19.198Z,19.58
2018-02-08T13:44:46.706Z,19.30
2018-02-08T13:47:20.729Z,21.47
2018-02-08T13:53:07.874Z,16.93
2018-02-08T13:55:41.143Z,15.10
2018-02-08T13:58:08.625Z,13.80
2018-02-08T14:00:51.167Z,14.80
2018-02-08T14:03:18.697Z,17.20
2018-02-08T14:05:46.185Z,15.83
2018-02-08T14:08:13.717Z,15.10
2018-02-08T14:10:41.222Z,14.60
2018-02-08T14:13:08.724Z,12.57
2018-02-08T14:15:36.337Z,13.00
2018-02-08T14:18:03.797Z,14.70
2018-02-08T14:20:31.285Z,15.77
2018-02-08T14:22:59.583Z,15.13
2018-02-08T14:25:27.088Z,15.40
2018-02-08T14:27:54.593Z,15.27
2018-02-08T14:30:22.869Z,19.40
2018-02-08T14:32:50.369Z,20.77
2018-02-08T14:35:17.870Z,23.03
2018-02-08T14:37:46.177Z,20.90
2018-02-08T14:40:13.664Z,22.50
2018-02-08T14:42:41.151Z,22.03
2018-02-08T14:45:08.801Z,23.57
2018-02-08T14:47:36.310Z,23.10
2018-02-08T14:50:03.802Z,23.30
2018-02-08T14:52:31.322Z,23.47
2018-02-08T14:54:59.577Z,22.30
2018-02-08T14:57:27.841Z,22.30
2018-02-08T14:59:55.333Z,22.27
2018-02-08T15:02:23.739Z,25.00
2018-02-08T15:04:51.254Z,24.00
2018-02-08T15:07:19.518Z,23.50
2018-02-08T15:09:47.006Z,24.35
2018-02-08T15:12:15.296Z,24.98
2018-02-08T15:14:42.785Z,19.35
2018-02-08T15:17:10.282Z,21.35
2018-02-08T15:19:39.046Z,21.33
2018-02-08T15:22:06.762Z,22.83
2018-02-08T15:24:34.372Z,27.15
2018-02-08T15:27:01.881Z,25.62
2018-02-08T15:29:29.523Z,26.55
2018-02-08T15:31:57.029Z,27.23
2018-02-08T15:34:24.545Z,25.10
2018-02-08T15:36:52.803Z,25.50
2018-02-08T15:39:20.293Z,23.60
2018-02-08T15:41:47.798Z,24.87
2018-02-08T15:44:15.469Z,26.05
2018-02-08T15:46:43.010Z,24.50
2018-02-08T15:49:10.518Z,25.77
2018-02-08T15:54:12.895Z,24.92
2018-02-08T15:56:40.626Z,28.73
2018-02-08T15:59:08.283Z,25.83
2018-02-08T16:01:35.882Z,25.80
2018-02-08T16:04:03.357Z,29.20
2018-02-08T16:06:31.637Z,30.23
2018-02-08T16:08:59.143Z,31.33
2018-02-08T16:11:26.789Z,32.70
2018-02-08T16:13:54.337Z,32.53
2018-02-08T16:16:21.951Z,30.90
2018-02-08T16:18:49.432Z,31.85
2018-02-08T16:21:17.956Z,31.30
2018-02-08T16:23:45.442Z,30.77
2018-02-08T16:26:12.930Z,31.67
2018-02-08T16:28:41.186Z,29.33
2018-02-08T16:31:08.811Z,31.15
2018-02-08T16:33:36.590Z,32.45
2018-02-08T16:36:04.089Z,31.62
2018-02-08T16:38:32.522Z,33.33
2018-02-08T16:41:00.136Z,31.65
2018-02-08T16:43:27.650Z,30.10
2018-02-08T16:45:55.182Z,32.30
2018-02-08T16:48:22.734Z,30.60
2018-02-08T16:50:50.400Z,31.50
2018-02-08T16:53:17.890Z,30.48
2018-02-08T16:55:45.411Z,32.67
2018-02-08T16:58:12.907Z,27.10
2018-02-08T17:00:40.424Z,29.95
2018-02-08T17:03:07.926Z,29.70
2018-02-08T17:05:35.431Z,29.50
2018-02-08T17:08:03.848Z,31.75
2018-02-08T17:10:31.516Z,31.52
2018-02-08T17:12:59.046Z,29.45
2018-02-08T17:15:26.842Z,30.70
2018-02-08T17:17:54.395Z,32.05
2018-02-08T17:20:21.889Z,31.42
2018-02-08T17:22:49.523Z,31.87
2018-02-08T17:25:17.815Z,30.75
2018-02-08T17:27:45.337Z,32.17
2018-02-08T17:30:13.207Z,31.40
2018-02-08T17:32:40.754Z,29.73
2018-02-08T17:35:09.021Z,31.08
2018-02-08T17:37:36.875Z,32.22
2018-02-08T17:40:04.554Z,29.87
2018-02-08T17:42:32.095Z,31.00
2018-02-08T17:45:00.353Z,33.60
2018-02-08T17:47:27.837Z,29.92
2018-02-08T17:49:56.117Z,31.60
2018-02-08T17:52:24.422Z,30.10
2018-02-08T17:54:51.920Z,32.50
2018-02-08T17:57:19.442Z,34.55
2018-02-08T17:59:46.975Z,32.53
2018-02-08T18:02:15.358Z,32.92
2018-02-08T18:04:42.902Z,31.48
2018-02-08T18:07:11.153Z,31.25
2018-02-08T18:09:38.909Z,34.58
2018-02-08T18:12:06.466Z,32.53
2018-02-08T18:14:34.265Z,31.37
2018-02-08T18:17:02.746Z,32.85
2018-02-08T18:19:31.065Z,34.03
2018-02-08T18:21:58.870Z,34.63
2018-02-08T18:24:26.417Z,35.35
2018-02-08T18:26:54.473Z,33.47
2018-02-08T18:29:22.254Z,33.75
2018-02-08T18:31:49.855Z,31.70
2018-02-08T18:34:19.014Z,36.38
2018-02-08T18:36:47.314Z,35.45
2018-02-08T18:39:15.679Z,34.33
2018-02-08T18:41:43.191Z,31.00
2018-02-08T18:44:14.973Z,32.60
2018-02-08T18:46:43.291Z,30.70
2018-02-08T18:49:10.975Z,29.42
2018-02-08T18:51:39.583Z,32.38
2018-02-08T18:54:07.440Z,31.60
2018-02-08T18:56:35.073Z,32.80
2018-02-08T18:59:04.481Z,30.35
2018-02-08T19:01:32.745Z,28.60
2018-02-08T19:04:00.233Z,27.67
2018-02-08T19:06:27.737Z,27.67
2018-02-08T19:08:55.319Z,27.42
2018-02-08T19:11:22.914Z,28.25
2018-02-08T19:13:50.418Z,27.20
2018-02-08T19:16:17.952Z,24.27
2018-02-08T19:18:45.444Z,22.55
2018-02-08T19:21:12.982Z,27.55
2018-02-08T19:23:40.579Z,26.23
2018-02-08T19:26:08.142Z,28.30
2018-02-08T19:28:35.630Z,30.25
2018-02-08T19:31:03.304Z,29.58
2018-02-08T19:33:30.826Z,28.30
2018-02-08T19:35:59.098Z,32.80
2018-02-08T19:38:26.688Z,32.42
2018-02-08T19:40:54.221Z,31.08
2018-02-08T19:43:23.270Z,34.40
2018-02-08T19:45:50.796Z,31.05
2018-02-08T19:48:19.093Z,30.83
2018-02-08T19:50:46.578Z,33.55
2018-02-08T19:53:14.066Z,30.00
2018-02-08T19:55:41.794Z,29.80
2018-02-08T19:58:09.315Z,30.23
2018-02-08T20:00:36.807Z,29.25
2018-02-08T20:03:05.094Z,30.88
2018-02-08T20:05:32.627Z,29.95
2018-02-08T20:08:00.317Z,26.60
2018-02-08T20:10:27.811Z,23.90
2018-02-08T20:12:56.085Z,28.35
2018-02-08T20:15:27.858Z,27.67
2018-02-08T20:17:56.093Z,28.58
2018-02-08T20:20:24.327Z,26.12
2018-02-08T20:22:51.824Z,28.35
2018-02-08T20:28:28.673Z,26.45
2018-02-08T20:31:02.662Z,25.92
2018-02-08T20:33:30.166Z,23.58
2018-02-08T20:35:57.643Z,24.45
2018-02-08T20:38:25.119Z,23.55
2018-02-08T20:40:52.642Z,25.77
2018-02-08T20:43:34.229Z,23.80
2018-02-08T20:46:02.305Z,25.05
2018-02-08T20:48:29.827Z,23.12
2018-02-08T20:50:58.097Z,23.27
2018-02-08T20:53:26.390Z,22.98
2018-02-08T20:55:53.905Z,25.73
2018-02-08T20:58:21.395Z,23.30
2018-02-08T21:00:49.686Z,21.00
2018-02-08T21:03:17.926Z,23.65
2018-02-08T21:05:45.447Z,24.92
2018-02-08T21:08:12.948Z,27.65
2018-02-08T21:10:40.445Z,22.58
2018-02-08T21:13:08.529Z,26.33
2018-02-08T21:15:36.041Z,23.42
2018-02-08T21:18:03.547Z,26.45
2018-02-08T21:20:31.846Z,26.15
2018-02-08T21:22:59.933Z,26.33
2018-02-08T21:25:27.434Z,26.25
2018-02-08T21:27:55.860Z,28.48
2018-02-08T21:30:23.356Z,27.77
2018-02-08T21:32:50.858Z,29.08
2018-02-08T21:35:18.390Z,26.20
2018-02-08T21:37:46.750Z,27.42
2018-02-08T21:40:14.302Z,30.33
2018-02-08T21:42:42.597Z,29.30
2018-02-08T21:45:10.858Z,27.80
2018-02-08T21:47:38.419Z,28.98
2018-02-08T21:50:05.986Z,26.92
2018-02-08T21:52:34.254Z,25.58
2018-02-08T21:55:01.756Z,28.60
2018-02-08T21:57:29.273Z,28.35
2018-02-08T21:59:57.560Z,31.50
2018-02-08T22:02:25.938Z,25.95
2018-02-08T22:04:54.256Z,28.73
2018-02-08T22:07:21.774Z,29.75
2018-02-08T22:09:50.093Z,30.52
2018-02-08T22:12:17.634Z,30.40
2018-02-08T22:14:45.982Z,30.73
2018-02-08T22:17:15.228Z,28.30
2018-02-08T22:19:42.835Z,26.83
2018-02-08T22:22:10.334Z,26.48
2018-02-08T22:24:37.917Z,28.05
2018-02-08T22:27:05.477Z,30.20
2018-02-08T22:29:34.129Z,27.70
2018-02-08T22:32:01.719Z,28.45
2018-02-08T22:34:30.567Z,28.77
2018-02-08T22:37:00.838Z,28.42
2018-02-08T22:39:31.526Z,30.10
2018-02-08T22:42:27.145Z,28.25
2018-02-08T22:44:55.506Z,30.98
2018-02-08T22:47:29.603Z,28.87
2018-02-08T22:50:00.764Z,30.45
2018-02-08T22:52:30.494Z,30.55
2018-02-08T22:54:58.234Z,29.15
2018-02-08T23:00:19.059Z,28.45
2018-02-08T23:02:58.256Z,28.75
2018-02-08T23:05:29.662Z,28.83
2018-02-08T23:08:14.256Z,28.92
2018-02-08T23:10:44.993Z,29.80
2018-02-08T23:13:17.532Z,29.08
2018-02-08T23:16:00.599Z,29.50
2018-02-08T23:18:30.470Z,29.08
2018-02-08T23:21:03.121Z,31.05
2018-02-08T23:23:59.766Z,28.70
2018-02-08T23:26:38.515Z,29.67
2018-02-08T23:29:07.675Z,27.45
2018-02-08T23:31:35.381Z,29.87
2018-02-08T23:34:03.797Z,26.10
2018-02-08T23:36:31.859Z,30.55
2018-02-08T23:39:00.250Z,28.15
2018-02-08T23:41:27.814Z,27.40
2018-02-08T23:43:57.142Z,26.15
2018-02-08T23:46:24.872Z,27.90
2018-02-08T23:48:52.769Z,25.95
2018-02-08T23:51:20.257Z,27.05
2018-02-08T23:53:48.562Z,24.30
2018-02-08T23:56:16.106Z,23.87
2018-02-08T23:58:43.584Z,25.60
